createdAt,value
2017-06-28T00:00:37.478Z,15.04
2017-06-28T00:01:32.510Z,15.05
2017-06-28T00:02:32.574Z,15.08
2017-06-28T00:03:26.596Z,15.08
2017-06-28T00:04:21.615Z,15.07
2017-06-28T00:05:16.964Z,15.07
2017-06-28T00:06:11.724Z,15.03
2017-06-28T00:07:00.887Z,15.00
2017-06-28T00:08:00.805Z,14.98
2017-06-28T00:08:55.819Z,14.95
2017-06-28T00:09:49.865Z,14.96
2017-06-28T00:10:45.264Z,14.94
2017-06-28T00:11:44.990Z,14.92
2017-06-28T00:12:39.998Z,14.91
2017-06-28T00:13:40.038Z,14.88
2017-06-28T00:14:34.084Z,14.90
2017-06-28T00:15:34.119Z,14.91
2017-06-28T00:16:23.413Z,14.91
2017-06-28T00:17:17.479Z,14.88
2017-06-28T00:18:06.227Z,14.89
2017-06-28T00:19:01.322Z,14.89
2017-06-28T00:20:01.323Z,14.88
2017-06-28T00:20:56.339Z,14.84
2017-06-28T00:21:51.725Z,14.82
2017-06-28T00:22:51.433Z,14.86
2017-06-28T00:23:46.512Z,14.85
2017-06-28T00:24:41.493Z,14.82
2017-06-28T00:25:41.519Z,14.85
2017-06-28T00:26:36.575Z,14.80
2017-06-28T00:27:31.898Z,14.80
2017-06-28T00:28:31.695Z,14.86
2017-06-28T00:29:26.698Z,14.90
2017-06-28T00:30:21.776Z,14.88
2017-06-28T00:31:22.798Z,14.84
2017-06-28T00:32:22.755Z,14.82
2017-06-28T00:33:23.101Z,14.83
2017-06-28T00:34:16.894Z,14.82
2017-06-28T00:35:05.939Z,14.79
2017-06-28T00:35:55.017Z,14.76
2017-06-28T00:36:56.164Z,14.76
2017-06-28T00:37:50.027Z,14.70
2017-06-28T00:38:44.400Z,14.66
2017-06-28T00:39:39.139Z,14.64
2017-06-28T00:40:34.130Z,14.60
2017-06-28T00:41:35.154Z,14.60
2017-06-28T00:42:35.212Z,14.61
2017-06-28T00:43:35.335Z,14.74
2017-06-28T00:44:30.690Z,14.76
2017-06-28T00:45:24.356Z,14.78
2017-06-28T00:46:24.395Z,14.78
2017-06-28T00:47:18.751Z,14.79
2017-06-28T00:48:07.497Z,14.75
2017-06-28T00:49:01.499Z,14.68
2017-06-28T00:49:57.094Z,14.73
2017-06-28T00:50:57.585Z,14.73
2017-06-28T00:51:57.607Z,14.75
2017-06-28T00:52:46.659Z,14.69
2017-06-28T00:53:34.721Z,14.65
2017-06-28T00:54:34.734Z,14.68
2017-06-28T00:55:30.165Z,14.76
2017-06-28T00:56:29.793Z,14.78
2017-06-28T00:57:24.839Z,14.77
2017-06-28T00:58:19.917Z,14.78
2017-06-28T00:59:14.904Z,14.75
2017-06-28T01:00:14.981Z,14.80
2017-06-28T01:01:04.413Z,14.76
2017-06-28T01:01:53.060Z,14.73
2017-06-28T01:02:48.133Z,14.70
2017-06-28T01:03:42.144Z,14.72
2017-06-28T01:04:42.208Z,14.74
2017-06-28T01:05:37.197Z,14.74
2017-06-28T01:06:31.578Z,14.76
2017-06-28T01:07:31.311Z,14.74
2017-06-28T01:08:25.323Z,14.72
2017-06-28T01:09:19.404Z,14.68
2017-06-28T01:10:19.405Z,14.66
2017-06-28T01:11:13.463Z,14.64
2017-06-28T01:12:13.586Z,14.68
2017-06-28T01:13:08.567Z,14.67
2017-06-28T01:13:57.804Z,14.66
2017-06-28T01:14:52.596Z,14.64
2017-06-28T01:15:46.642Z,14.63
2017-06-28T01:16:46.663Z,14.61
2017-06-28T01:17:42.280Z,14.60
2017-06-28T01:18:35.795Z,14.57
2017-06-28T01:19:36.794Z,14.55
2017-06-28T01:20:36.813Z,14.53
2017-06-28T01:21:30.944Z,14.59
2017-06-28T01:22:30.912Z,14.63
2017-06-28T01:23:25.237Z,14.65
2017-06-28T01:24:13.998Z,14.64
2017-06-28T01:25:03.160Z,14.64
2017-06-28T01:25:57.347Z,14.62
2017-06-28T01:26:46.295Z,14.62
2017-06-28T01:27:40.173Z,14.65
2017-06-28T01:28:34.501Z,14.66
2017-06-28T01:29:29.229Z,14.66
2017-06-28T01:30:18.303Z,14.65
2017-06-28T01:31:13.306Z,14.65
2017-06-28T01:32:13.382Z,14.63
2017-06-28T01:33:08.499Z,14.64
2017-06-28T01:34:03.852Z,14.61
2017-06-28T01:35:03.461Z,14.58
2017-06-28T01:35:58.499Z,14.60
2017-06-28T01:36:53.559Z,14.62
2017-06-28T01:37:41.604Z,14.57
2017-06-28T01:38:30.672Z,14.56
2017-06-28T01:39:25.753Z,14.59
2017-06-28T01:40:19.717Z,14.60
2017-06-28T01:41:19.775Z,14.60
2017-06-28T01:42:13.795Z,14.63
2017-06-28T01:43:14.787Z,14.64
2017-06-28T01:44:08.881Z,14.70
2017-06-28T01:45:08.918Z,14.74
2017-06-28T01:46:03.903Z,14.76
2017-06-28T01:46:59.072Z,14.76
2017-06-28T01:47:59.087Z,14.72
2017-06-28T01:48:54.068Z,14.66
2017-06-28T01:49:48.090Z,14.64
2017-06-28T01:50:43.281Z,14.68
2017-06-28T01:51:38.197Z,14.66
2017-06-28T01:52:27.481Z,14.60
2017-06-28T01:53:16.256Z,14.59
2017-06-28T01:54:16.323Z,14.58
2017-06-28T01:55:11.300Z,14.61
2017-06-28T01:56:11.387Z,14.64
2017-06-28T01:57:06.419Z,14.65
2017-06-28T01:57:54.717Z,14.64
2017-06-28T01:58:54.484Z,14.62
2017-06-28T01:59:48.530Z,14.65
2017-06-28T02:00:48.578Z,14.69
2017-06-28T02:01:43.635Z,14.70
2017-06-28T02:02:38.613Z,14.70
2017-06-28T02:03:39.700Z,14.74
2017-06-28T02:04:33.731Z,14.74
2017-06-28T02:05:27.774Z,14.80
2017-06-28T02:06:22.794Z,14.78
2017-06-28T02:07:11.910Z,14.79
2017-06-28T02:08:06.917Z,14.82
2017-06-28T02:09:00.915Z,14.80
2017-06-28T02:09:55.238Z,14.80
2017-06-28T02:10:49.007Z,14.78
2017-06-28T02:11:44.051Z,14.75
2017-06-28T02:12:39.140Z,14.72
2017-06-28T02:13:39.108Z,14.67
2017-06-28T02:14:27.166Z,14.66
2017-06-28T02:15:21.242Z,14.63
2017-06-28T02:16:15.203Z,14.64
2017-06-28T02:17:16.266Z,14.64
2017-06-28T02:18:11.313Z,14.64
2017-06-28T02:19:05.334Z,14.64
2017-06-28T02:19:54.404Z,14.66
2017-06-28T02:20:48.404Z,14.70
2017-06-28T02:21:42.470Z,14.80
2017-06-28T02:22:36.516Z,14.82
2017-06-28T02:23:37.614Z,14.86
2017-06-28T02:24:37.610Z,14.88
2017-06-28T02:25:37.613Z,14.91
2017-06-28T02:26:31.619Z,14.91
2017-06-28T02:27:19.699Z,14.86
2017-06-28T02:28:14.717Z,14.82
2017-06-28T02:29:09.872Z,14.78
2017-06-28T02:30:09.833Z,14.77
2017-06-28T02:31:03.882Z,14.76
2017-06-28T02:32:03.888Z,14.70
2017-06-28T02:32:58.912Z,14.69
2017-06-28T02:33:54.259Z,14.68
2017-06-28T02:34:54.020Z,14.70
2017-06-28T02:35:49.026Z,14.66
2017-06-28T02:36:44.327Z,14.70
2017-06-28T02:37:44.099Z,14.69
2017-06-28T02:38:39.119Z,14.68
2017-06-28T02:39:28.218Z,14.66
2017-06-28T02:40:29.318Z,14.65
2017-06-28T02:41:30.310Z,14.62
2017-06-28T02:42:19.336Z,14.65
2017-06-28T02:43:13.338Z,14.67
2017-06-28T02:44:13.429Z,14.66
2017-06-28T02:45:07.421Z,14.65
2017-06-28T02:46:02.542Z,14.66
2017-06-28T02:46:56.502Z,14.62
2017-06-28T02:47:51.568Z,14.60
2017-06-28T02:48:52.613Z,14.57
2017-06-28T02:49:46.623Z,14.54
2017-06-28T02:50:46.648Z,14.60
2017-06-28T02:51:41.990Z,14.72
2017-06-28T02:52:41.729Z,14.74
2017-06-28T02:53:30.794Z,14.74
2017-06-28T02:54:25.910Z,14.75
2017-06-28T02:55:19.887Z,14.78
2017-06-28T02:56:19.943Z,14.80
2017-06-28T02:57:20.006Z,14.81
2017-06-28T02:58:15.013Z,14.78
2017-06-28T02:59:09.026Z,14.79
2017-06-28T03:00:04.084Z,14.80
2017-06-28T03:01:05.078Z,14.78
2017-06-28T03:01:59.130Z,14.77
2017-06-28T03:02:48.178Z,14.78
2017-06-28T03:03:54.222Z,14.76
2017-06-28T03:04:43.252Z,14.75
2017-06-28T03:05:43.318Z,14.72
2017-06-28T03:06:37.608Z,14.72
2017-06-28T03:07:26.396Z,14.66
2017-06-28T03:08:27.395Z,14.68
2017-06-28T03:09:28.398Z,14.68
2017-06-28T03:10:22.493Z,14.72
2017-06-28T03:11:22.535Z,14.76
2017-06-28T03:12:17.572Z,14.82
2017-06-28T03:13:12.621Z,14.85
2017-06-28T03:14:12.696Z,14.89
2017-06-28T03:15:12.705Z,14.87
2017-06-28T03:16:06.724Z,14.90
2017-06-28T03:17:06.741Z,14.93
2017-06-28T03:18:01.797Z,14.94
2017-06-28T03:18:56.825Z,14.94
2017-06-28T03:19:56.868Z,14.97
2017-06-28T03:20:50.987Z,15.09
2017-06-28T03:21:52.211Z,15.08
2017-06-28T03:22:53.003Z,15.13
2017-06-28T03:23:46.995Z,15.14
2017-06-28T03:24:47.145Z,15.18
2017-06-28T03:25:42.126Z,15.20
2017-06-28T03:26:36.232Z,15.27
2017-06-28T03:27:31.131Z,15.25
2017-06-28T03:28:32.213Z,15.20
2017-06-28T03:29:27.198Z,15.25
2017-06-28T03:30:21.289Z,15.22
2017-06-28T03:31:21.465Z,15.19
2017-06-28T03:32:16.314Z,15.17
2017-06-28T03:33:11.435Z,15.18
2017-06-28T03:34:05.493Z,15.18
2017-06-28T03:35:00.506Z,15.16
2017-06-28T03:36:01.577Z,15.20
2017-06-28T03:36:55.608Z,15.20
2017-06-28T03:37:44.611Z,15.23
2017-06-28T03:38:50.637Z,15.24
2017-06-28T03:39:44.706Z,15.30
2017-06-28T03:40:44.734Z,15.34
2017-06-28T03:41:39.042Z,15.34
2017-06-28T03:42:39.851Z,15.36
2017-06-28T03:43:33.859Z,15.40
2017-06-28T03:44:22.934Z,15.38
2017-06-28T03:45:23.912Z,15.36
2017-06-28T03:46:23.988Z,15.37
2017-06-28T03:47:23.992Z,15.38
2017-06-28T03:48:25.110Z,15.32
2017-06-28T03:49:25.101Z,15.34
2017-06-28T03:50:20.102Z,15.28
2017-06-28T03:51:21.243Z,15.28
2017-06-28T03:52:16.241Z,15.33
2017-06-28T03:53:16.276Z,15.34
2017-06-28T03:54:22.311Z,15.34
2017-06-28T03:55:17.299Z,15.32
2017-06-28T03:56:11.320Z,15.40
2017-06-28T03:57:12.383Z,15.38
2017-06-28T03:58:07.405Z,15.40
2017-06-28T03:59:01.469Z,15.38
2017-06-28T04:00:01.499Z,15.41
2017-06-28T04:00:56.545Z,15.44
2017-06-28T04:01:51.839Z,15.40
2017-06-28T04:02:51.586Z,15.48
2017-06-28T04:03:46.632Z,15.56
2017-06-28T04:04:40.697Z,15.64
2017-06-28T04:05:40.779Z,15.57
2017-06-28T04:06:29.787Z,15.59
2017-06-28T04:07:23.818Z,15.66
2017-06-28T04:08:29.868Z,15.57
2017-06-28T04:09:24.912Z,15.64
2017-06-28T04:10:24.934Z,15.60
2017-06-28T04:11:19.988Z,15.64
2017-06-28T04:12:14.022Z,15.67
2017-06-28T04:13:13.997Z,15.68
2017-06-28T04:14:08.090Z,15.66
2017-06-28T04:15:09.143Z,15.62
2017-06-28T04:16:09.149Z,15.62
2017-06-28T04:17:04.208Z,15.66
2017-06-28T04:18:04.216Z,15.64
2017-06-28T04:19:04.290Z,15.67
2017-06-28T04:19:58.292Z,15.62
2017-06-28T04:20:53.368Z,15.60
2017-06-28T04:21:47.376Z,15.66
2017-06-28T04:22:47.503Z,15.62
2017-06-28T04:23:41.511Z,15.60
2017-06-28T04:24:35.527Z,15.58
2017-06-28T04:25:29.581Z,15.59
2017-06-28T04:26:29.598Z,15.64
2017-06-28T04:27:17.645Z,15.59
2017-06-28T04:28:11.722Z,15.59
2017-06-28T04:29:05.737Z,15.56
2017-06-28T04:29:59.795Z,15.60
2017-06-28T04:30:59.833Z,15.61
2017-06-28T04:31:53.869Z,15.64
2017-06-28T04:32:53.885Z,15.69
2017-06-28T04:33:48.928Z,15.75
2017-06-28T04:34:37.982Z,15.75
2017-06-28T04:35:27.032Z,15.84
2017-06-28T04:36:21.098Z,15.88
2017-06-28T04:37:15.100Z,15.86
2017-06-28T04:38:09.167Z,15.88
2017-06-28T04:39:09.258Z,15.95
2017-06-28T04:40:04.264Z,15.91
2017-06-28T04:40:59.312Z,15.95
2017-06-28T04:41:59.337Z,15.90
2017-06-28T04:42:54.406Z,15.94
2017-06-28T04:43:49.411Z,15.96
2017-06-28T04:44:43.527Z,15.94
2017-06-28T04:45:43.499Z,15.98
2017-06-28T04:46:38.685Z,16.03
2017-06-28T04:47:33.579Z,15.98
2017-06-28T04:48:33.606Z,15.97
2017-06-28T04:49:22.679Z,16.00
2017-06-28T04:50:22.699Z,16.04
2017-06-28T04:51:22.740Z,16.06
2017-06-28T04:52:17.805Z,16.05
2017-06-28T04:53:11.820Z,16.08
2017-06-28T04:54:05.911Z,16.07
2017-06-28T04:54:59.886Z,16.17
2017-06-28T04:56:00.005Z,16.10
2017-06-28T04:56:54.996Z,16.17
2017-06-28T04:57:49.226Z,16.16
2017-06-28T04:58:49.063Z,16.21
2017-06-28T04:59:43.121Z,16.19
2017-06-28T05:00:37.186Z,16.25
2017-06-28T05:01:31.269Z,16.22
2017-06-28T05:02:26.224Z,16.28
2017-06-28T05:03:21.285Z,16.32
2017-06-28T05:04:21.323Z,16.22
2017-06-28T05:05:16.389Z,16.22
2017-06-28T05:06:10.440Z,16.23
2017-06-28T05:07:10.479Z,16.19
2017-06-28T05:08:04.483Z,16.19
2017-06-28T05:09:05.538Z,16.08
2017-06-28T05:09:54.598Z,16.12
2017-06-28T05:10:54.632Z,16.12
2017-06-28T05:11:43.962Z,16.08
2017-06-28T05:12:43.799Z,16.03
2017-06-28T05:13:37.807Z,16.05
2017-06-28T05:14:37.811Z,16.06
2017-06-28T05:15:37.876Z,16.04
2017-06-28T05:16:32.865Z,16.02
2017-06-28T05:17:28.125Z,16.00
2017-06-28T05:18:28.007Z,16.01
2017-06-28T05:19:23.021Z,16.01
2017-06-28T05:20:17.018Z,15.96
2017-06-28T05:21:17.070Z,15.95
2017-06-28T05:22:11.112Z,15.89
2017-06-28T05:23:11.142Z,15.85
2017-06-28T05:24:06.196Z,15.91
2017-06-28T05:25:00.225Z,15.88
2017-06-28T05:25:54.283Z,15.84
2017-06-28T05:26:49.660Z,15.94
2017-06-28T05:27:43.407Z,15.92
2017-06-28T05:28:38.418Z,15.89
2017-06-28T05:29:33.516Z,15.86
2017-06-28T05:30:33.507Z,15.87
2017-06-28T05:31:33.542Z,15.86
2017-06-28T05:32:28.611Z,15.85
2017-06-28T05:33:22.613Z,15.83
2017-06-28T05:34:22.659Z,15.78
2017-06-28T05:35:17.722Z,15.79
2017-06-28T05:36:11.784Z,15.84
2017-06-28T05:37:11.811Z,15.86
2017-06-28T05:38:06.843Z,15.84
2017-06-28T05:39:00.894Z,15.82
2017-06-28T05:40:00.914Z,15.82
2017-06-28T05:40:55.023Z,15.78
2017-06-28T05:41:50.446Z,15.79
2017-06-28T05:42:50.052Z,15.84
2017-06-28T05:43:45.110Z,15.81
2017-06-28T05:44:45.121Z,15.81
2017-06-28T05:45:39.143Z,15.82
2017-06-28T05:46:39.272Z,15.92
2017-06-28T05:47:39.246Z,15.84
2017-06-28T05:48:39.292Z,15.84
2017-06-28T05:49:39.331Z,15.91
2017-06-28T05:50:33.421Z,15.82
2017-06-28T05:51:33.400Z,15.84
2017-06-28T05:52:28.467Z,15.74
2017-06-28T05:53:28.523Z,15.79
2017-06-28T05:54:22.532Z,15.76
2017-06-28T05:55:22.588Z,15.78
2017-06-28T05:56:17.619Z,15.78
2017-06-28T05:57:11.642Z,15.73
2017-06-28T05:58:11.744Z,15.76
2017-06-28T05:59:00.734Z,15.86
2017-06-28T05:59:54.802Z,15.73
2017-06-28T06:00:48.844Z,15.70
2017-06-28T06:01:49.179Z,15.71
2017-06-28T06:02:42.934Z,15.65
2017-06-28T06:03:43.109Z,15.64
2017-06-28T06:04:38.024Z,15.64
2017-06-28T06:05:32.038Z,15.58
2017-06-28T06:06:27.076Z,15.70
2017-06-28T06:07:21.136Z,15.64
2017-06-28T06:08:21.258Z,15.69
2017-06-28T06:09:16.271Z,15.74
2017-06-28T06:10:10.265Z,15.76
2017-06-28T06:11:05.303Z,15.84
2017-06-28T06:12:00.358Z,15.85
2017-06-28T06:13:00.414Z,16.04
2017-06-28T06:13:55.416Z,16.06
2017-06-28T06:14:49.502Z,16.17
2017-06-28T06:15:49.512Z,16.14
2017-06-28T06:16:44.751Z,16.13
2017-06-28T06:17:44.604Z,16.11
2017-06-28T06:18:44.667Z,16.22
2017-06-28T06:19:39.695Z,16.24
2017-06-28T06:20:34.792Z,16.24
2017-06-28T06:21:35.773Z,16.38
2017-06-28T06:22:35.793Z,16.32
2017-06-28T06:23:35.837Z,16.46
2017-06-28T06:24:35.947Z,16.62
2017-06-28T06:25:23.930Z,16.61
2017-06-28T06:26:19.014Z,16.58
2017-06-28T06:27:19.010Z,16.66
2017-06-28T06:28:13.039Z,16.70
2017-06-28T06:29:08.095Z,16.70
2017-06-28T06:30:03.103Z,16.74
2017-06-28T06:30:57.185Z,16.57
2017-06-28T06:31:57.237Z,16.50
2017-06-28T06:32:51.255Z,16.45
2017-06-28T06:33:40.316Z,16.39
2017-06-28T06:34:34.366Z,16.30
2017-06-28T06:35:29.394Z,16.34
2017-06-28T06:36:23.485Z,16.30
2017-06-28T06:37:18.558Z,16.39
2017-06-28T06:38:18.553Z,16.39
2017-06-28T06:39:13.605Z,16.44
2017-06-28T06:40:07.629Z,16.44
2017-06-28T06:41:01.718Z,16.49
2017-06-28T06:41:50.037Z,16.49
2017-06-28T06:42:44.801Z,16.51
2017-06-28T06:43:44.844Z,16.42
2017-06-28T06:44:38.817Z,16.32
2017-06-28T06:45:33.896Z,16.48
2017-06-28T06:46:28.955Z,16.56
2017-06-28T06:47:18.001Z,16.63
2017-06-28T06:48:13.044Z,16.70
2017-06-28T06:49:07.147Z,16.68
2017-06-28T06:50:07.095Z,16.81
2017-06-28T06:50:55.137Z,16.72
2017-06-28T06:51:50.701Z,16.82
2017-06-28T06:52:50.256Z,16.92
2017-06-28T06:53:44.380Z,16.78
2017-06-28T06:54:44.342Z,16.50
2017-06-28T06:55:39.403Z,16.55
2017-06-28T06:56:33.424Z,16.62
2017-06-28T06:57:34.535Z,16.62
2017-06-28T06:58:29.485Z,16.71
2017-06-28T06:59:23.575Z,16.88
2017-06-28T07:00:17.650Z,16.90
2017-06-28T07:01:17.724Z,16.90
2017-06-28T07:02:11.727Z,16.94
2017-06-28T07:03:06.702Z,17.00
2017-06-28T07:04:00.821Z,17.16
2017-06-28T07:04:54.958Z,17.11
2017-06-28T07:05:54.915Z,17.04
2017-06-28T07:06:43.271Z,17.27
2017-06-28T07:07:38.003Z,17.43
2017-06-28T07:08:38.009Z,17.38
2017-06-28T07:09:32.081Z,17.22
2017-06-28T07:10:26.133Z,17.36
2017-06-28T07:11:26.175Z,17.42
2017-06-28T07:12:21.273Z,17.36
2017-06-28T07:13:10.309Z,17.17
2017-06-28T07:13:58.259Z,17.37
2017-06-28T07:14:52.337Z,17.32
2017-06-28T07:15:46.428Z,17.26
2017-06-28T07:16:35.456Z,17.20
2017-06-28T07:17:24.487Z,17.23
2017-06-28T07:18:12.538Z,17.14
2017-06-28T07:19:06.605Z,17.05
2017-06-28T07:20:00.629Z,17.11
2017-06-28T07:20:55.699Z,17.24
2017-06-28T07:21:56.708Z,17.30
2017-06-28T07:22:50.811Z,17.55
2017-06-28T07:23:38.875Z,17.64
2017-06-28T07:24:38.899Z,17.71
2017-06-28T07:25:32.899Z,17.66
2017-06-28T07:26:22.283Z,17.66
2017-06-28T07:27:23.033Z,17.58
2017-06-28T07:28:23.057Z,17.60
2017-06-28T07:29:18.095Z,17.58
2017-06-28T07:30:13.129Z,17.45
2017-06-28T07:31:13.201Z,17.42
2017-06-28T07:32:07.232Z,17.34
2017-06-28T07:33:02.304Z,17.44
2017-06-28T07:33:57.370Z,17.41
2017-06-28T07:34:57.461Z,17.46
2017-06-28T07:35:51.563Z,17.45
2017-06-28T07:36:45.781Z,17.48
2017-06-28T07:37:39.619Z,17.50
2017-06-28T07:38:33.583Z,17.65
2017-06-28T07:39:21.677Z,17.64
2017-06-28T07:40:22.742Z,17.72
2017-06-28T07:41:16.697Z,17.87
2017-06-28T07:42:10.803Z,17.86
2017-06-28T07:43:10.859Z,17.89
2017-06-28T07:44:05.829Z,17.91
2017-06-28T07:44:59.911Z,17.91
2017-06-28T07:46:00.066Z,18.01
2017-06-28T07:46:54.287Z,18.01
2017-06-28T07:47:49.016Z,17.94
2017-06-28T07:48:49.109Z,17.94
2017-06-28T07:49:43.130Z,17.96
2017-06-28T07:50:38.199Z,18.05
2017-06-28T07:51:33.207Z,18.12
2017-06-28T07:52:33.239Z,18.26
2017-06-28T07:53:33.346Z,18.38
2017-06-28T07:54:27.431Z,18.41
2017-06-28T07:55:21.412Z,18.36
2017-06-28T07:56:15.461Z,18.36
2017-06-28T07:57:03.539Z,18.25
2017-06-28T07:58:03.580Z,18.26
2017-06-28T07:58:58.631Z,18.22
2017-06-28T07:59:52.706Z,18.18
2017-06-28T08:00:47.687Z,18.37
2017-06-28T08:01:42.726Z,18.58
2017-06-28T08:02:36.787Z,18.80
2017-06-28T08:03:30.871Z,18.96
2017-06-28T08:04:24.879Z,19.34
2017-06-28T08:05:24.962Z,19.59
2017-06-28T08:06:24.990Z,19.86
2017-06-28T08:07:19.067Z,20.39
2017-06-28T08:08:19.105Z,20.51
2017-06-28T08:09:20.220Z,20.94
2017-06-28T08:10:15.255Z,20.91
2017-06-28T08:11:15.315Z,21.05
2017-06-28T08:12:10.377Z,21.03
2017-06-28T08:13:05.458Z,20.32
2017-06-28T08:13:59.501Z,20.24
2017-06-28T08:14:54.529Z,19.98
2017-06-28T08:15:43.542Z,19.66
2017-06-28T08:16:32.713Z,19.22
2017-06-28T08:17:32.722Z,19.05
2017-06-28T08:18:32.727Z,18.91
2017-06-28T08:19:26.831Z,18.75
2017-06-28T08:20:14.833Z,18.88
2017-06-28T08:21:14.930Z,19.06
2017-06-28T08:22:04.030Z,19.10
2017-06-28T08:22:59.000Z,19.05
2017-06-28T08:23:53.116Z,18.94
2017-06-28T08:24:53.086Z,18.85
2017-06-28T08:25:42.156Z,18.90
2017-06-28T08:26:36.464Z,18.94
2017-06-28T08:27:30.583Z,18.94
2017-06-28T08:28:18.342Z,18.78
2017-06-28T08:29:18.389Z,18.74
2017-06-28T08:30:13.391Z,18.71
2017-06-28T08:31:07.511Z,18.54
2017-06-28T08:32:02.540Z,18.52
2017-06-28T08:32:56.918Z,18.57
2017-06-28T08:33:50.622Z,18.44
2017-06-28T08:34:45.705Z,18.50
2017-06-28T08:35:34.716Z,18.53
2017-06-28T08:36:29.792Z,18.70
2017-06-28T08:37:18.058Z,18.65
2017-06-28T08:38:06.978Z,18.75
2017-06-28T08:38:56.113Z,18.78
2017-06-28T08:39:50.031Z,18.96
2017-06-28T08:40:39.082Z,19.07
2017-06-28T08:41:33.120Z,19.23
2017-06-28T08:42:21.175Z,19.43
2017-06-28T08:43:16.261Z,19.50
2017-06-28T08:44:05.276Z,19.57
2017-06-28T08:45:05.299Z,19.64
2017-06-28T08:46:05.386Z,19.80
2017-06-28T08:46:59.415Z,19.78
2017-06-28T08:47:53.481Z,19.66
2017-06-28T08:48:48.608Z,19.71
2017-06-28T08:49:42.564Z,20.01
2017-06-28T08:50:36.622Z,20.06
2017-06-28T08:51:36.711Z,20.05
2017-06-28T08:52:30.705Z,19.83
2017-06-28T08:53:30.752Z,19.55
2017-06-28T08:54:24.825Z,19.52
2017-06-28T08:55:13.908Z,19.62
2017-06-28T08:56:08.918Z,19.53
2017-06-28T08:57:08.960Z,19.46
2017-06-28T08:57:58.093Z,19.50
2017-06-28T08:58:47.106Z,19.66
2017-06-28T08:59:41.111Z,20.10
2017-06-28T09:00:35.206Z,20.04
2017-06-28T09:01:29.241Z,20.05
2017-06-28T09:02:24.362Z,20.08
2017-06-28T09:03:13.465Z,20.18
2017-06-28T09:04:02.394Z,20.51
2017-06-28T09:04:51.522Z,20.73
2017-06-28T09:05:51.522Z,21.16
2017-06-28T09:06:46.865Z,21.04
2017-06-28T09:07:40.673Z,20.97
2017-06-28T09:08:34.810Z,20.76
2017-06-28T09:09:34.702Z,20.79
2017-06-28T09:10:29.164Z,20.72
2017-06-28T09:11:22.823Z,20.68
2017-06-28T09:12:17.032Z,20.98
2017-06-28T09:13:12.069Z,21.02
2017-06-28T09:14:05.986Z,21.08
2017-06-28T09:15:01.118Z,21.58
2017-06-28T09:15:55.398Z,21.68
2017-06-28T09:16:44.145Z,21.61
2017-06-28T09:17:38.205Z,21.80
2017-06-28T09:18:27.394Z,21.84
2017-06-28T09:19:21.371Z,22.16
2017-06-28T09:20:16.433Z,22.60
2017-06-28T09:21:11.018Z,22.68
2017-06-28T09:21:59.530Z,23.01
2017-06-28T09:22:53.635Z,23.21
2017-06-28T09:23:48.719Z,23.40
2017-06-28T09:24:42.783Z,23.71
2017-06-28T09:25:30.881Z,24.07
2017-06-28T09:26:30.926Z,24.16
2017-06-28T09:27:25.010Z,24.12
2017-06-28T09:28:25.137Z,24.28
2017-06-28T09:29:19.119Z,24.05
2017-06-28T09:30:14.207Z,23.93
2017-06-28T09:31:09.299Z,23.91
2017-06-28T09:32:04.410Z,23.66
2017-06-28T09:32:58.448Z,23.70
2017-06-28T09:33:47.497Z,23.64
2017-06-28T09:34:42.771Z,23.72
2017-06-28T09:35:36.737Z,24.20
2017-06-28T09:36:31.726Z,24.45
2017-06-28T09:37:26.181Z,24.20
2017-06-28T09:38:20.903Z,24.00
2017-06-28T09:39:21.125Z,23.90
2017-06-28T09:40:16.007Z,23.94
2017-06-28T09:41:11.294Z,23.96
2017-06-28T09:42:06.246Z,24.21
2017-06-28T09:43:00.412Z,24.20
2017-06-28T09:43:55.317Z,24.07
2017-06-28T09:44:49.420Z,24.09
2017-06-28T09:45:38.502Z,24.21
2017-06-28T09:46:26.700Z,24.22
2017-06-28T09:47:14.833Z,24.09
2017-06-28T09:48:02.694Z,24.14
2017-06-28T09:48:56.803Z,24.43
2017-06-28T09:49:45.112Z,24.48
2017-06-28T09:50:34.003Z,24.42
2017-06-28T09:51:28.185Z,24.63
2017-06-28T09:52:22.269Z,25.14
2017-06-28T09:53:16.661Z,25.59
2017-06-28T09:54:04.357Z,25.67
2017-06-28T09:54:59.483Z,25.42
2017-06-28T09:55:48.507Z,24.89
2017-06-28T09:56:48.681Z,24.86
2017-06-28T09:57:43.762Z,24.95
2017-06-28T09:58:44.059Z,25.02
2017-06-28T09:59:43.827Z,25.03
2017-06-28T10:00:37.873Z,24.89
2017-06-28T10:01:31.973Z,24.73
2017-06-28T10:02:26.065Z,24.50
2017-06-28T10:03:20.142Z,24.46
2017-06-28T10:04:21.525Z,24.48
2017-06-28T10:05:14.999Z,24.50
2017-06-28T10:06:10.148Z,24.32
2017-06-28T10:07:04.123Z,24.14
2017-06-28T10:07:58.237Z,23.71
2017-06-28T10:08:52.293Z,23.54
2017-06-28T10:09:52.583Z,23.29
2017-06-28T10:10:41.401Z,23.27
2017-06-28T10:11:41.496Z,23.25
2017-06-28T10:12:36.623Z,23.40
2017-06-28T10:13:36.632Z,23.32
2017-06-28T10:14:30.710Z,23.22
2017-06-28T10:15:26.337Z,23.15
2017-06-28T10:16:19.839Z,23.00
2017-06-28T10:17:19.980Z,22.88
2017-06-28T10:18:19.933Z,22.78
2017-06-28T10:19:20.009Z,22.72
2017-06-28T10:20:15.090Z,22.63
2017-06-28T10:21:10.105Z,22.64
2017-06-28T10:21:59.157Z,22.70
2017-06-28T10:22:59.243Z,22.76
2017-06-28T10:23:59.321Z,22.84
2017-06-28T10:24:54.390Z,22.97
2017-06-28T10:25:54.470Z,22.84
2017-06-28T10:26:49.826Z,23.00
2017-06-28T10:27:38.601Z,22.92
2017-06-28T10:28:38.611Z,22.52
2017-06-28T10:29:33.721Z,22.44
2017-06-28T10:30:34.918Z,22.03
2017-06-28T10:31:23.871Z,21.82
2017-06-28T10:32:11.999Z,21.68
2017-06-28T10:33:01.021Z,21.61
2017-06-28T10:33:55.126Z,21.70
2017-06-28T10:34:49.138Z,21.82
2017-06-28T10:35:49.780Z,21.83
2017-06-28T10:36:43.296Z,21.73
2017-06-28T10:37:37.369Z,21.59
2017-06-28T10:38:32.408Z,21.45
2017-06-28T10:39:32.492Z,21.35
2017-06-28T10:40:32.543Z,21.06
2017-06-28T10:41:26.689Z,20.82
2017-06-28T10:42:14.672Z,20.67
2017-06-28T10:43:09.794Z,20.37
2017-06-28T10:44:03.787Z,20.12
2017-06-28T10:44:52.862Z,20.02
2017-06-28T10:45:46.911Z,19.56
2017-06-28T10:46:41.933Z,19.34
2017-06-28T10:47:37.048Z,19.22
2017-06-28T10:48:32.329Z,19.08
2017-06-28T10:49:27.124Z,18.95
2017-06-28T10:50:22.172Z,18.76
2017-06-28T10:51:22.194Z,18.62
2017-06-28T10:52:10.262Z,18.55
2017-06-28T10:53:05.325Z,18.45
2017-06-28T10:54:00.344Z,18.38
2017-06-28T10:55:00.431Z,18.29
2017-06-28T10:55:55.417Z,18.19
2017-06-28T10:56:49.777Z,18.16
2017-06-28T10:57:50.499Z,18.03
2017-06-28T10:58:45.630Z,17.92
2017-06-28T10:59:43.314Z,17.99
2017-06-28T11:00:40.700Z,18.00
2017-06-28T11:01:40.990Z,18.04
2017-06-28T11:02:35.792Z,18.02
2017-06-28T11:03:30.809Z,17.97
2017-06-28T11:04:24.824Z,18.00
2017-06-28T11:05:20.260Z,17.96
2017-06-28T11:06:13.911Z,17.98
2017-06-28T11:07:08.024Z,18.02
2017-06-28T11:08:02.005Z,18.04
2017-06-28T11:08:57.113Z,18.00
2017-06-28T11:09:57.149Z,17.95
2017-06-28T11:10:51.508Z,17.92
2017-06-28T11:11:51.498Z,17.92
2017-06-28T11:12:51.248Z,18.00
2017-06-28T11:13:51.299Z,18.00
2017-06-28T11:14:51.360Z,17.98
2017-06-28T11:15:52.282Z,18.02
2017-06-28T11:16:51.696Z,18.09
2017-06-28T11:17:51.509Z,18.02
2017-06-28T11:18:46.509Z,18.08
2017-06-28T11:19:41.530Z,18.04
2017-06-28T11:20:41.631Z,18.08
2017-06-28T11:21:41.928Z,18.04
2017-06-28T11:22:35.682Z,18.02
2017-06-28T11:23:36.727Z,18.02
2017-06-28T11:24:31.775Z,18.03
2017-06-28T11:25:25.814Z,17.94
2017-06-28T11:26:20.843Z,17.93
2017-06-28T11:27:26.913Z,17.80
2017-06-28T11:28:20.938Z,17.85
2017-06-28T11:29:14.998Z,17.82
2017-06-28T11:30:10.057Z,17.81
2017-06-28T11:31:05.089Z,17.86
2017-06-28T11:31:54.413Z,17.92
2017-06-28T11:32:48.205Z,17.94
2017-06-28T11:33:42.394Z,17.99
2017-06-28T11:34:42.206Z,18.06
2017-06-28T11:35:30.285Z,18.19
2017-06-28T11:36:24.313Z,18.10
2017-06-28T11:37:19.425Z,18.02
2017-06-28T11:38:13.416Z,18.05
2017-06-28T11:39:08.484Z,18.06
2017-06-28T11:40:08.507Z,18.05
2017-06-28T11:41:03.533Z,18.10
2017-06-28T11:41:57.637Z,18.10
2017-06-28T11:42:52.622Z,18.12
2017-06-28T11:43:52.694Z,18.16
2017-06-28T11:44:47.726Z,18.19
2017-06-28T11:45:47.791Z,18.21
2017-06-28T11:46:36.832Z,18.31
2017-06-28T11:47:24.894Z,18.36
2017-06-28T11:48:24.905Z,18.36
2017-06-28T11:49:19.007Z,18.43
2017-06-28T11:50:13.986Z,18.30
2017-06-28T11:51:03.009Z,18.40
2017-06-28T11:51:52.299Z,18.34
2017-06-28T11:52:47.132Z,18.27
2017-06-28T11:53:41.472Z,18.29
2017-06-28T11:54:41.499Z,18.32